sensor_id;sensor_type;location;lat;lon;timestamp;P1;durP1;ratioP1;P2;durP2;ratioP2
15271;SDS011;7737;51.578;7.268;2022-08-14T00:00:19;5.35;;;4.95;;
15271;SDS011;7737;51.578;7.268;2022-08-14T00:02:47;5.63;;;5.05;;
15271;SDS011;7737;51.578;7.268;2022-08-14T00:05:14;5.53;;;4.85;;
15271;SDS011;7737;51.578;7.268;2022-08-14T00:07:42;6.32;;;5.10;;
15271;SDS011;7737;51.578;7.268;2022-08-14T00:10:10;6.95;;;5.47;;
15271;SDS011;7737;51.578;7.268;2022-08-14T00:12:39;5.75;;;5.22;;
15271;SDS011;7737;51.578;7.268;2022-08-14T00:15:11;6.15;;;5.45;;
15271;SDS011;7737;51.578;7.268;2022-08-14T00:17:40;6.15;;;5.57;;
15271;SDS011;7737;51.578;7.268;2022-08-14T00:20:07;7.68;;;5.53;;
15271;SDS011;7737;51.578;7.268;2022-08-14T00:22:35;6.35;;;5.75;;
15271;SDS011;7737;51.578;7.268;2022-08-14T00:25:01;5.93;;;5.43;;
15271;SDS011;7737;51.578;7.268;2022-08-14T00:27:28;6.03;;;5.32;;
15271;SDS011;7737;51.578;7.268;2022-08-14T00:29:55;6.70;;;5.80;;
15271;SDS011;7737;51.578;7.268;2022-08-14T00:32:21;6.65;;;6.03;;
15271;SDS011;7737;51.578;7.268;2022-08-14T00:34:49;6.13;;;5.63;;
15271;SDS011;7737;51.578;7.268;2022-08-14T00:37:16;6.68;;;5.57;;
15271;SDS011;7737;51.578;7.268;2022-08-14T00:39:42;6.30;;;5.70;;
15271;SDS011;7737;51.578;7.268;2022-08-14T00:42:09;6.88;;;6.10;;
15271;SDS011;7737;51.578;7.268;2022-08-14T00:44:35;6.20;;;5.70;;
15271;SDS011;7737;51.578;7.268;2022-08-14T00:47:02;6.50;;;5.90;;
15271;SDS011;7737;51.578;7.268;2022-08-14T00:49:33;6.45;;;5.85;;
15271;SDS011;7737;51.578;7.268;2022-08-14T00:52:02;5.97;;;5.47;;
15271;SDS011;7737;51.578;7.268;2022-08-14T00:54:29;6.55;;;5.95;;
15271;SDS011;7737;51.578;7.268;2022-08-14T00:56:56;6.78;;;6.18;;
15271;SDS011;7737;51.578;7.268;2022-08-14T00:59:23;6.40;;;5.82;;
15271;SDS011;7737;51.578;7.268;2022-08-14T01:01:52;7.78;;;6.50;;
15271;SDS011;7737;51.578;7.268;2022-08-14T01:04:20;6.75;;;6.07;;
15271;SDS011;7737;51.578;7.268;2022-08-14T01:06:48;6.82;;;6.25;;
15271;SDS011;7737;51.578;7.268;2022-08-14T01:09:17;7.03;;;6.30;;
15271;SDS011;7737;51.578;7.268;2022-08-14T01:11:46;8.27;;;6.18;;
15271;SDS011;7737;51.578;7.268;2022-08-14T01:14:14;6.65;;;6.15;;
15271;SDS011;7737;51.578;7.268;2022-08-14T01:16:41;8.18;;;6.70;;
15271;SDS011;7737;51.578;7.268;2022-08-14T01:19:08;7.38;;;6.68;;
15271;SDS011;7737;51.578;7.268;2022-08-14T01:21:53;7.95;;;6.75;;
15271;SDS011;7737;51.578;7.268;2022-08-14T01:24:20;7.07;;;6.55;;
15271;SDS011;7737;51.578;7.268;2022-08-14T01:26:46;7.22;;;6.53;;
15271;SDS011;7737;51.578;7.268;2022-08-14T01:29:13;7.82;;;7.03;;
15271;SDS011;7737;51.578;7.268;2022-08-14T01:31:41;6.85;;;6.22;;
15271;SDS011;7737;51.578;7.268;2022-08-14T01:34:09;7.47;;;6.60;;
15271;SDS011;7737;51.578;7.268;2022-08-14T01:36:35;7.80;;;7.03;;
15271;SDS011;7737;51.578;7.268;2022-08-14T01:39:05;7.45;;;6.80;;
15271;SDS011;7737;51.578;7.268;2022-08-14T01:41:34;7.30;;;6.68;;
15271;SDS011;7737;51.578;7.268;2022-08-14T01:44:03;7.38;;;6.80;;
15271;SDS011;7737;51.578;7.268;2022-08-14T01:46:32;8.05;;;7.00;;
15271;SDS011;7737;51.578;7.268;2022-08-14T01:49:01;7.65;;;6.95;;
15271;SDS011;7737;51.578;7.268;2022-08-14T01:51:29;7.80;;;7.20;;
15271;SDS011;7737;51.578;7.268;2022-08-14T01:53:57;7.80;;;7.15;;
15271;SDS011;7737;51.578;7.268;2022-08-14T01:56:28;7.78;;;7.07;;
15271;SDS011;7737;51.578;7.268;2022-08-14T01:59:00;7.90;;;7.07;;
15271;SDS011;7737;51.578;7.268;2022-08-14T02:01:27;8.25;;;6.97;;
15271;SDS011;7737;51.578;7.268;2022-08-14T02:03:54;7.43;;;6.82;;
15271;SDS011;7737;51.578;7.268;2022-08-14T02:06:21;7.80;;;7.13;;
15271;SDS011;7737;51.578;7.268;2022-08-14T02:08:48;8.93;;;7.43;;
15271;SDS011;7737;51.578;7.268;2022-08-14T02:11:15;7.70;;;7.10;;
15271;SDS011;7737;51.578;7.268;2022-08-14T02:13:49;8.13;;;7.43;;
15271;SDS011;7737;51.578;7.268;2022-08-14T02:16:18;9.65;;;7.55;;
15271;SDS011;7737;51.578;7.268;2022-08-14T02:18:49;8.18;;;7.47;;
15271;SDS011;7737;51.578;7.268;2022-08-14T02:21:16;8.05;;;7.35;;
15271;SDS011;7737;51.578;7.268;2022-08-14T02:23:44;8.77;;;7.78;;
15271;SDS011;7737;51.578;7.268;2022-08-14T02:26:15;8.05;;;7.25;;
15271;SDS011;7737;51.578;7.268;2022-08-14T02:28:44;7.90;;;7.20;;
15271;SDS011;7737;51.578;7.268;2022-08-14T02:31:13;8.77;;;7.90;;
15271;SDS011;7737;51.578;7.268;2022-08-14T02:33:40;7.90;;;7.25;;
15271;SDS011;7737;51.578;7.268;2022-08-14T02:36:07;8.82;;;8.07;;
15271;SDS011;7737;51.578;7.268;2022-08-14T02:38:34;8.35;;;7.60;;
15271;SDS011;7737;51.578;7.268;2022-08-14T02:41:02;8.60;;;7.80;;
15271;SDS011;7737;51.578;7.268;2022-08-14T02:43:30;8.80;;;7.88;;
15271;SDS011;7737;51.578;7.268;2022-08-14T02:45:57;7.95;;;7.25;;
15271;SDS011;7737;51.578;7.268;2022-08-14T02:48:25;8.68;;;7.78;;
15271;SDS011;7737;51.578;7.268;2022-08-14T02:50:55;8.07;;;7.45;;
15271;SDS011;7737;51.578;7.268;2022-08-14T02:53:21;9.02;;;8.20;;
15271;SDS011;7737;51.578;7.268;2022-08-14T02:55:48;8.15;;;7.45;;
15271;SDS011;7737;51.578;7.268;2022-08-14T02:58:15;8.80;;;8.02;;
15271;SDS011;7737;51.578;7.268;2022-08-14T03:00:42;8.88;;;8.07;;
15271;SDS011;7737;51.578;7.268;2022-08-14T03:03:09;9.00;;;8.07;;
15271;SDS011;7737;51.578;7.268;2022-08-14T03:05:37;9.10;;;8.20;;
15271;SDS011;7737;51.578;7.268;2022-08-14T03:08:05;9.27;;;8.43;;
15271;SDS011;7737;51.578;7.268;2022-08-14T03:10:33;9.02;;;8.23;;
15271;SDS011;7737;51.578;7.268;2022-08-14T03:13:00;9.55;;;8.70;;
15271;SDS011;7737;51.578;7.268;2022-08-14T03:15:28;9.27;;;8.48;;
15271;SDS011;7737;51.578;7.268;2022-08-14T03:17:55;9.27;;;8.48;;
15271;SDS011;7737;51.578;7.268;2022-08-14T03:20:22;9.75;;;8.45;;
15271;SDS011;7737;51.578;7.268;2022-08-14T03:22:50;9.25;;;8.05;;
15271;SDS011;7737;51.578;7.268;2022-08-14T03:25:18;9.18;;;8.38;;
15271;SDS011;7737;51.578;7.268;2022-08-14T03:27:46;8.90;;;8.05;;
15271;SDS011;7737;51.578;7.268;2022-08-14T03:30:12;9.55;;;8.65;;
15271;SDS011;7737;51.578;7.268;2022-08-14T03:32:39;9.32;;;8.52;;
15271;SDS011;7737;51.578;7.268;2022-08-14T03:35:06;9.00;;;8.13;;
15271;SDS011;7737;51.578;7.268;2022-08-14T03:37:33;8.90;;;8.10;;
15271;SDS011;7737;51.578;7.268;2022-08-14T03:40:02;8.57;;;7.78;;
15271;SDS011;7737;51.578;7.268;2022-08-14T03:42:30;9.40;;;8.43;;
15271;SDS011;7737;51.578;7.268;2022-08-14T03:44:59;9.13;;;8.27;;
15271;SDS011;7737;51.578;7.268;2022-08-14T03:47:26;8.95;;;8.25;;
15271;SDS011;7737;51.578;7.268;2022-08-14T03:49:52;9.25;;;8.35;;
15271;SDS011;7737;51.578;7.268;2022-08-14T03:52:19;9.27;;;8.40;;
15271;SDS011;7737;51.578;7.268;2022-08-14T03:54:45;9.70;;;8.80;;
15271;SDS011;7737;51.578;7.268;2022-08-14T03:57:14;8.95;;;8.15;;
15271;SDS011;7737;51.578;7.268;2022-08-14T03:59:41;8.95;;;8.25;;
15271;SDS011;7737;51.578;7.268;2022-08-14T04:02:07;8.43;;;7.82;;
15271;SDS011;7737;51.578;7.268;2022-08-14T04:04:34;9.38;;;8.38;;
15271;SDS011;7737;51.578;7.268;2022-08-14T04:07:02;9.85;;;9.02;;
15271;SDS011;7737;51.578;7.268;2022-08-14T04:09:28;9.85;;;9.05;;
15271;SDS011;7737;51.578;7.268;2022-08-14T04:11:55;9.93;;;8.95;;
15271;SDS011;7737;51.578;7.268;2022-08-14T04:14:25;9.55;;;8.75;;
15271;SDS011;7737;51.578;7.268;2022-08-14T04:16:53;11.35;;;10.45;;
15271;SDS011;7737;51.578;7.268;2022-08-14T04:19:19;10.55;;;9.40;;
15271;SDS011;7737;51.578;7.268;2022-08-14T04:21:47;10.32;;;9.43;;
15271;SDS011;7737;51.578;7.268;2022-08-14T04:24:15;11.05;;;9.85;;
15271;SDS011;7737;51.578;7.268;2022-08-14T04:26:42;10.70;;;9.70;;
15271;SDS011;7737;51.578;7.268;2022-08-14T04:29:09;10.85;;;9.85;;
15271;SDS011;7737;51.578;7.268;2022-08-14T04:31:38;9.88;;;8.98;;
15271;SDS011;7737;51.578;7.268;2022-08-14T04:34:05;10.27;;;9.30;;
15271;SDS011;7737;51.578;7.268;2022-08-14T04:36:31;10.27;;;9.40;;
15271;SDS011;7737;51.578;7.268;2022-08-14T04:39:18;9.90;;;9.07;;
15271;SDS011;7737;51.578;7.268;2022-08-14T04:42:02;10.55;;;9.50;;
15271;SDS011;7737;51.578;7.268;2022-08-14T04:44:46;11.15;;;10.15;;
15271;SDS011;7737;51.578;7.268;2022-08-14T04:47:14;10.93;;;10.02;;
15271;SDS011;7737;51.578;7.268;2022-08-14T04:50:00;10.35;;;9.32;;
15271;SDS011;7737;51.578;7.268;2022-08-14T04:52:27;12.38;;;9.80;;
15271;SDS011;7737;51.578;7.268;2022-08-14T04:54:54;10.60;;;9.25;;
15271;SDS011;7737;51.578;7.268;2022-08-14T04:57:21;10.65;;;9.65;;
15271;SDS011;7737;51.578;7.268;2022-08-14T04:59:48;10.60;;;9.65;;
15271;SDS011;7737;51.578;7.268;2022-08-14T05:02:18;11.82;;;10.63;;
15271;SDS011;7737;51.578;7.268;2022-08-14T05:04:51;11.15;;;10.18;;
15271;SDS011;7737;51.578;7.268;2022-08-14T05:07:17;11.50;;;10.50;;
15271;SDS011;7737;51.578;7.268;2022-08-14T05:09:44;11.48;;;10.48;;
15271;SDS011;7737;51.578;7.268;2022-08-14T05:12:10;12.48;;;11.25;;
15271;SDS011;7737;51.578;7.268;2022-08-14T05:14:37;12.25;;;11.05;;
15271;SDS011;7737;51.578;7.268;2022-08-14T05:17:03;12.85;;;11.65;;
15271;SDS011;7737;51.578;7.268;2022-08-14T05:19:31;13.15;;;11.85;;
15271;SDS011;7737;51.578;7.268;2022-08-14T05:21:58;12.73;;;11.52;;
15271;SDS011;7737;51.578;7.268;2022-08-14T05:24:25;13.40;;;12.20;;
15271;SDS011;7737;51.578;7.268;2022-08-14T05:26:52;13.68;;;12.35;;
15271;SDS011;7737;51.578;7.268;2022-08-14T05:29:18;14.32;;;13.10;;
15271;SDS011;7737;51.578;7.268;2022-08-14T05:31:45;14.60;;;13.30;;
15271;SDS011;7737;51.578;7.268;2022-08-14T05:34:12;15.23;;;13.68;;
15271;SDS011;7737;51.578;7.268;2022-08-14T05:36:39;14.13;;;12.93;;
15271;SDS011;7737;51.578;7.268;2022-08-14T05:39:06;13.98;;;12.48;;
15271;SDS011;7737;51.578;7.268;2022-08-14T05:41:33;15.70;;;14.15;;
15271;SDS011;7737;51.578;7.268;2022-08-14T05:44:00;16.35;;;14.75;;
15271;SDS011;7737;51.578;7.268;2022-08-14T05:46:27;16.15;;;14.60;;
15271;SDS011;7737;51.578;7.268;2022-08-14T05:48:54;14.90;;;13.70;;
15271;SDS011;7737;51.578;7.268;2022-08-14T05:51:23;17.20;;;15.50;;
15271;SDS011;7737;51.578;7.268;2022-08-14T05:53:51;17.33;;;15.10;;
15271;SDS011;7737;51.578;7.268;2022-08-14T05:56:18;15.95;;;14.35;;
15271;SDS011;7737;51.578;7.268;2022-08-14T05:58:44;15.98;;;14.50;;
15271;SDS011;7737;51.578;7.268;2022-08-14T06:01:11;15.50;;;14.07;;
15271;SDS011;7737;51.578;7.268;2022-08-14T06:03:37;14.90;;;13.60;;
15271;SDS011;7737;51.578;7.268;2022-08-14T06:06:04;14.73;;;13.35;;
15271;SDS011;7737;51.578;7.268;2022-08-14T06:08:31;13.93;;;12.52;;
15271;SDS011;7737;51.578;7.268;2022-08-14T06:11:00;12.48;;;11.48;;
15271;SDS011;7737;51.578;7.268;2022-08-14T06:13:28;12.10;;;11.10;;
15271;SDS011;7737;51.578;7.268;2022-08-14T06:15:55;14.30;;;11.10;;
15271;SDS011;7737;51.578;7.268;2022-08-14T06:18:21;11.00;;;10.00;;
15271;SDS011;7737;51.578;7.268;2022-08-14T06:20:48;11.55;;;10.45;;
15271;SDS011;7737;51.578;7.268;2022-08-14T06:23:16;10.95;;;10.05;;
15271;SDS011;7737;51.578;7.268;2022-08-14T06:25:42;11.40;;;10.40;;
15271;SDS011;7737;51.578;7.268;2022-08-14T06:28:15;10.98;;;10.07;;
15271;SDS011;7737;51.578;7.268;2022-08-14T06:30:43;11.07;;;10.07;;
15271;SDS011;7737;51.578;7.268;2022-08-14T06:33:09;11.20;;;10.20;;
15271;SDS011;7737;51.578;7.268;2022-08-14T06:35:36;11.00;;;10.00;;
15271;SDS011;7737;51.578;7.268;2022-08-14T06:38:04;11.10;;;9.90;;
15271;SDS011;7737;51.578;7.268;2022-08-14T06:40:31;10.20;;;9.23;;
15271;SDS011;7737;51.578;7.268;2022-08-14T06:43:00;10.05;;;9.27;;
15271;SDS011;7737;51.578;7.268;2022-08-14T06:45:29;10.15;;;9.18;;
15271;SDS011;7737;51.578;7.268;2022-08-14T06:47:56;10.23;;;9.40;;
15271;SDS011;7737;51.578;7.268;2022-08-14T06:50:25;10.20;;;9.30;;
15271;SDS011;7737;51.578;7.268;2022-08-14T06:52:52;9.82;;;8.90;;
15271;SDS011;7737;51.578;7.268;2022-08-14T06:55:19;10.13;;;9.23;;
15271;SDS011;7737;51.578;7.268;2022-08-14T06:57:46;9.63;;;8.85;;
15271;SDS011;7737;51.578;7.268;2022-08-14T07:00:15;9.25;;;8.45;;
15271;SDS011;7737;51.578;7.268;2022-08-14T07:02:44;11.75;;;8.60;;
15271;SDS011;7737;51.578;7.268;2022-08-14T07:05:29;9.18;;;8.38;;
15271;SDS011;7737;51.578;7.268;2022-08-14T07:08:12;9.25;;;8.55;;
15271;SDS011;7737;51.578;7.268;2022-08-14T07:10:40;9.73;;;8.82;;
15271;SDS011;7737;51.578;7.268;2022-08-14T07:13:09;8.93;;;8.13;;
15271;SDS011;7737;51.578;7.268;2022-08-14T07:15:36;8.82;;;8.13;;
15271;SDS011;7737;51.578;7.268;2022-08-14T07:18:04;8.65;;;7.95;;
15271;SDS011;7737;51.578;7.268;2022-08-14T07:20:32;8.85;;;8.02;;
15271;SDS011;7737;51.578;7.268;2022-08-14T07:22:59;8.93;;;8.18;;
15271;SDS011;7737;51.578;7.268;2022-08-14T07:25:26;9.23;;;8.18;;
15271;SDS011;7737;51.578;7.268;2022-08-14T07:27:54;8.70;;;7.95;;
15271;SDS011;7737;51.578;7.268;2022-08-14T07:30:21;8.88;;;8.05;;
15271;SDS011;7737;51.578;7.268;2022-08-14T07:32:49;8.95;;;8.25;;
15271;SDS011;7737;51.578;7.268;2022-08-14T07:35:17;8.23;;;7.53;;
15271;SDS011;7737;51.578;7.268;2022-08-14T07:37:46;8.55;;;7.85;;
15271;SDS011;7737;51.578;7.268;2022-08-14T07:40:13;8.30;;;7.65;;
15271;SDS011;7737;51.578;7.268;2022-08-14T07:42:39;8.27;;;7.43;;
15271;SDS011;7737;51.578;7.268;2022-08-14T07:45:07;8.52;;;7.75;;
15271;SDS011;7737;51.578;7.268;2022-08-14T07:47:37;8.35;;;7.65;;
15271;SDS011;7737;51.578;7.268;2022-08-14T07:50:06;8.05;;;7.45;;
15271;SDS011;7737;51.578;7.268;2022-08-14T07:52:40;8.00;;;7.20;;
15271;SDS011;7737;51.578;7.268;2022-08-14T07:55:07;7.75;;;6.72;;
15271;SDS011;7737;51.578;7.268;2022-08-14T07:57:35;7.53;;;6.85;;
15271;SDS011;7737;51.578;7.268;2022-08-14T08:00:04;7.20;;;6.70;;
15271;SDS011;7737;51.578;7.268;2022-08-14T08:02:34;8.05;;;7.35;;
15271;SDS011;7737;51.578;7.268;2022-08-14T08:05:04;7.80;;;7.20;;
15271;SDS011;7737;51.578;7.268;2022-08-14T08:07:31;7.57;;;6.95;;
15271;SDS011;7737;51.578;7.268;2022-08-14T08:10:02;8.00;;;7.30;;
15271;SDS011;7737;51.578;7.268;2022-08-14T08:12:51;7.65;;;6.95;;
15271;SDS011;7737;51.578;7.268;2022-08-14T08:15:19;7.63;;;7.13;;
15271;SDS011;7737;51.578;7.268;2022-08-14T08:17:47;8.30;;;7.70;;
15271;SDS011;7737;51.578;7.268;2022-08-14T08:20:14;7.80;;;7.10;;
15271;SDS011;7737;51.578;7.268;2022-08-14T08:22:42;7.88;;;7.18;;
15271;SDS011;7737;51.578;7.268;2022-08-14T08:25:10;7.60;;;7.00;;
15271;SDS011;7737;51.578;7.268;2022-08-14T08:27:37;7.80;;;7.20;;
15271;SDS011;7737;51.578;7.268;2022-08-14T08:30:04;7.57;;;6.88;;
15271;SDS011;7737;51.578;7.268;2022-08-14T08:32:36;6.85;;;6.35;;
15271;SDS011;7737;51.578;7.268;2022-08-14T08:35:04;7.32;;;6.72;;
15271;SDS011;7737;51.578;7.268;2022-08-14T08:37:34;7.43;;;6.72;;
15271;SDS011;7737;51.578;7.268;2022-08-14T08:40:01;7.10;;;6.50;;
15271;SDS011;7737;51.578;7.268;2022-08-14T08:42:30;7.43;;;6.70;;
15271;SDS011;7737;51.578;7.268;2022-08-14T08:44:56;8.23;;;7.28;;
15271;SDS011;7737;51.578;7.268;2022-08-14T08:47:23;7.53;;;6.82;;
15271;SDS011;7737;51.578;7.268;2022-08-14T08:49:50;7.68;;;6.80;;
15271;SDS011;7737;51.578;7.268;2022-08-14T08:52:18;7.70;;;7.00;;
15271;SDS011;7737;51.578;7.268;2022-08-14T08:54:51;7.53;;;6.90;;
15271;SDS011;7737;51.578;7.268;2022-08-14T08:57:18;7.55;;;6.85;;
15271;SDS011;7737;51.578;7.268;2022-08-14T08:59:46;7.20;;;6.65;;
15271;SDS011;7737;51.578;7.268;2022-08-14T09:02:14;7.45;;;6.75;;
15271;SDS011;7737;51.578;7.268;2022-08-14T09:04:42;8.45;;;7.30;;
15271;SDS011;7737;51.578;7.268;2022-08-14T09:07:09;8.05;;;7.35;;
15271;SDS011;7737;51.578;7.268;2022-08-14T09:09:37;6.95;;;6.45;;
15271;SDS011;7737;51.578;7.268;2022-08-14T09:12:15;10.18;;;7.00;;
15271;SDS011;7737;51.578;7.268;2022-08-14T09:14:43;7.18;;;6.57;;
15271;SDS011;7737;51.578;7.268;2022-08-14T09:17:13;7.32;;;6.68;;
15271;SDS011;7737;51.578;7.268;2022-08-14T09:19:39;7.57;;;6.88;;
15271;SDS011;7737;51.578;7.268;2022-08-14T09:22:07;7.53;;;6.80;;
15271;SDS011;7737;51.578;7.268;2022-08-14T09:24:35;7.03;;;6.40;;
15271;SDS011;7737;51.578;7.268;2022-08-14T09:27:01;7.03;;;6.43;;
15271;SDS011;7737;51.578;7.268;2022-08-14T09:29:28;7.10;;;6.43;;
15271;SDS011;7737;51.578;7.268;2022-08-14T09:31:55;7.40;;;6.85;;
15271;SDS011;7737;51.578;7.268;2022-08-14T09:34:35;7.43;;;6.82;;
15271;SDS011;7737;51.578;7.268;2022-08-14T09:37:15;6.50;;;5.90;;
15271;SDS011;7737;51.578;7.268;2022-08-14T09:39:55;6.35;;;5.85;;
15271;SDS011;7737;51.578;7.268;2022-08-14T09:42:33;6.60;;;6.10;;
15271;SDS011;7737;51.578;7.268;2022-08-14T09:45:16;6.10;;;5.60;;
15271;SDS011;7737;51.578;7.268;2022-08-14T09:47:46;6.90;;;6.20;;
15271;SDS011;7737;51.578;7.268;2022-08-14T09:50:17;6.43;;;5.93;;
15271;SDS011;7737;51.578;7.268;2022-08-14T09:52:47;6.53;;;6.03;;
15271;SDS011;7737;51.578;7.268;2022-08-14T09:55:16;5.95;;;5.35;;
15271;SDS011;7737;51.578;7.268;2022-08-14T09:57:44;6.68;;;6.07;;
15271;SDS011;7737;51.578;7.268;2022-08-14T10:00:11;6.90;;;6.30;;
15271;SDS011;7737;51.578;7.268;2022-08-14T10:02:50;6.65;;;5.70;;
15271;SDS011;7737;51.578;7.268;2022-08-14T10:05:27;6.22;;;5.72;;
15271;SDS011;7737;51.578;7.268;2022-08-14T10:07:55;6.38;;;5.88;;
15271;SDS011;7737;51.578;7.268;2022-08-14T10:10:26;6.22;;;5.68;;
15271;SDS011;7737;51.578;7.268;2022-08-14T10:12:54;5.97;;;5.50;;
15271;SDS011;7737;51.578;7.268;2022-08-14T10:15:22;5.82;;;5.43;;
15271;SDS011;7737;51.578;7.268;2022-08-14T10:18:01;6.28;;;5.78;;
15271;SDS011;7737;51.578;7.268;2022-08-14T10:20:36;6.38;;;5.78;;
15271;SDS011;7737;51.578;7.268;2022-08-14T10:23:13;6.18;;;5.68;;
15271;SDS011;7737;51.578;7.268;2022-08-14T10:25:42;6.55;;;5.95;;
15271;SDS011;7737;51.578;7.268;2022-08-14T10:28:11;6.55;;;6.00;;
15271;SDS011;7737;51.578;7.268;2022-08-14T10:30:42;6.57;;;5.88;;
15271;SDS011;7737;51.578;7.268;2022-08-14T10:33:22;5.75;;;5.25;;
15271;SDS011;7737;51.578;7.268;2022-08-14T10:35:51;5.53;;;5.03;;
15271;SDS011;7737;51.578;7.268;2022-08-14T10:38:27;5.85;;;5.30;;
15271;SDS011;7737;51.578;7.268;2022-08-14T10:40:56;5.57;;;5.15;;
15271;SDS011;7737;51.578;7.268;2022-08-14T10:43:36;5.57;;;5.07;;
15271;SDS011;7737;51.578;7.268;2022-08-14T10:46:10;7.55;;;5.50;;
15271;SDS011;7737;51.578;7.268;2022-08-14T10:48:38;7.07;;;5.03;;
15271;SDS011;7737;51.578;7.268;2022-08-14T10:51:06;6.07;;;5.50;;
15271;SDS011;7737;51.578;7.268;2022-08-14T10:53:34;6.18;;;5.53;;
15271;SDS011;7737;51.578;7.268;2022-08-14T10:56:03;5.00;;;4.60;;
15271;SDS011;7737;51.578;7.268;2022-08-14T10:58:34;5.45;;;4.97;;
15271;SDS011;7737;51.578;7.268;2022-08-14T11:01:01;5.60;;;4.90;;
15271;SDS011;7737;51.578;7.268;2022-08-14T11:03:36;6.10;;;5.00;;
15271;SDS011;7737;51.578;7.268;2022-08-14T11:06:12;5.20;;;4.72;;
15271;SDS011;7737;51.578;7.268;2022-08-14T11:08:42;5.40;;;5.00;;
15271;SDS011;7737;51.578;7.268;2022-08-14T11:11:09;6.43;;;5.00;;
15271;SDS011;7737;51.578;7.268;2022-08-14T11:13:36;5.53;;;4.70;;
15271;SDS011;7737;51.578;7.268;2022-08-14T11:16:08;5.40;;;5.00;;
15271;SDS011;7737;51.578;7.268;2022-08-14T11:18:35;5.22;;;4.72;;
15271;SDS011;7737;51.578;7.268;2022-08-14T11:21:03;6.88;;;4.93;;
15271;SDS011;7737;51.578;7.268;2022-08-14T11:23:33;5.30;;;4.82;;
15271;SDS011;7737;51.578;7.268;2022-08-14T11:26:02;5.03;;;4.72;;
15271;SDS011;7737;51.578;7.268;2022-08-14T11:28:31;5.10;;;4.70;;
15271;SDS011;7737;51.578;7.268;2022-08-14T11:30:58;5.20;;;4.75;;
15271;SDS011;7737;51.578;7.268;2022-08-14T11:33:28;5.20;;;4.90;;
15271;SDS011;7737;51.578;7.268;2022-08-14T11:35:57;5.45;;;5.05;;
15271;SDS011;7737;51.578;7.268;2022-08-14T11:38:25;5.43;;;4.97;;
15271;SDS011;7737;51.578;7.268;2022-08-14T11:40:54;5.22;;;4.88;;
15271;SDS011;7737;51.578;7.268;2022-08-14T11:43:22;5.50;;;5.10;;
15271;SDS011;7737;51.578;7.268;2022-08-14T11:45:50;5.32;;;4.82;;
15271;SDS011;7737;51.578;7.268;2022-08-14T11:48:17;5.63;;;5.22;;
15271;SDS011;7737;51.578;7.268;2022-08-14T11:50:45;5.97;;;5.32;;
15271;SDS011;7737;51.578;7.268;2022-08-14T11:53:19;5.57;;;5.18;;
15271;SDS011;7737;51.578;7.268;2022-08-14T11:55:53;5.10;;;4.70;;
15271;SDS011;7737;51.578;7.268;2022-08-14T11:58:26;5.60;;;5.13;;
15271;SDS011;7737;51.578;7.268;2022-08-14T12:00:55;5.70;;;5.20;;
15271;SDS011;7737;51.578;7.268;2022-08-14T12:03:33;5.40;;;5.00;;
15271;SDS011;7737;51.578;7.268;2022-08-14T12:06:04;6.38;;;5.45;;
15271;SDS011;7737;51.578;7.268;2022-08-14T12:08:32;5.38;;;4.97;;
15271;SDS011;7737;51.578;7.268;2022-08-14T12:11:02;7.38;;;5.30;;
15271;SDS011;7737;51.578;7.268;2022-08-14T12:13:29;5.30;;;4.90;;
15271;SDS011;7737;51.578;7.268;2022-08-14T12:15:58;5.32;;;4.93;;
15271;SDS011;7737;51.578;7.268;2022-08-14T12:18:30;5.57;;;5.07;;
15271;SDS011;7737;51.578;7.268;2022-08-14T12:21:09;5.68;;;5.28;;
15271;SDS011;7737;51.578;7.268;2022-08-14T12:23:37;5.53;;;5.13;;
15271;SDS011;7737;51.578;7.268;2022-08-14T12:26:06;5.60;;;5.20;;
15271;SDS011;7737;51.578;7.268;2022-08-14T12:28:35;5.55;;;5.00;;
15271;SDS011;7737;51.578;7.268;2022-08-14T12:31:10;5.47;;;4.97;;
15271;SDS011;7737;51.578;7.268;2022-08-14T12:33:41;5.32;;;4.88;;
15271;SDS011;7737;51.578;7.268;2022-08-14T12:36:09;5.50;;;5.00;;
15271;SDS011;7737;51.578;7.268;2022-08-14T12:38:45;5.53;;;5.13;;
15271;SDS011;7737;51.578;7.268;2022-08-14T12:41:17;6.07;;;5.50;;
15271;SDS011;7737;51.578;7.268;2022-08-14T12:43:46;5.50;;;5.10;;
15271;SDS011;7737;51.578;7.268;2022-08-14T12:46:25;5.40;;;5.00;;
15271;SDS011;7737;51.578;7.268;2022-08-14T12:48:55;5.78;;;5.28;;
15271;SDS011;7737;51.578;7.268;2022-08-14T12:51:23;5.60;;;5.05;;
15271;SDS011;7737;51.578;7.268;2022-08-14T12:53:52;5.13;;;4.80;;
15271;SDS011;7737;51.578;7.268;2022-08-14T12:56:21;5.65;;;5.25;;
15271;SDS011;7737;51.578;7.268;2022-08-14T12:58:51;5.93;;;4.95;;
15271;SDS011;7737;51.578;7.268;2022-08-14T13:01:20;5.72;;;5.18;;
15271;SDS011;7737;51.578;7.268;2022-08-14T13:03:49;5.70;;;5.07;;
15271;SDS011;7737;51.578;7.268;2022-08-14T13:06:17;5.22;;;4.93;;
15271;SDS011;7737;51.578;7.268;2022-08-14T13:08:49;5.97;;;5.43;;
15271;SDS011;7737;51.578;7.268;2022-08-14T13:11:17;5.80;;;5.25;;
15271;SDS011;7737;51.578;7.268;2022-08-14T13:13:45;5.55;;;5.03;;
15271;SDS011;7737;51.578;7.268;2022-08-14T13:16:13;5.53;;;5.10;;
15271;SDS011;7737;51.578;7.268;2022-08-14T13:18:40;5.47;;;5.07;;
15271;SDS011;7737;51.578;7.268;2022-08-14T13:21:10;5.10;;;4.75;;
15271;SDS011;7737;51.578;7.268;2022-08-14T13:23:37;5.50;;;5.00;;
15271;SDS011;7737;51.578;7.268;2022-08-14T13:26:08;5.32;;;4.82;;
15271;SDS011;7737;51.578;7.268;2022-08-14T13:28:36;5.43;;;4.93;;
15271;SDS011;7737;51.578;7.268;2022-08-14T13:31:08;5.45;;;5.05;;
15271;SDS011;7737;51.578;7.268;2022-08-14T13:33:38;5.88;;;5.38;;
15271;SDS011;7737;51.578;7.268;2022-08-14T13:36:05;5.10;;;4.70;;
15271;SDS011;7737;51.578;7.268;2022-08-14T13:38:33;5.82;;;5.32;;
15271;SDS011;7737;51.578;7.268;2022-08-14T13:41:00;6.10;;;5.50;;
15271;SDS011;7737;51.578;7.268;2022-08-14T13:43:28;5.97;;;5.53;;
15271;SDS011;7737;51.578;7.268;2022-08-14T13:45:55;6.00;;;5.57;;
15271;SDS011;7737;51.578;7.268;2022-08-14T13:48:23;6.93;;;6.25;;
15271;SDS011;7737;51.578;7.268;2022-08-14T13:50:51;5.53;;;4.88;;
15271;SDS011;7737;51.578;7.268;2022-08-14T13:53:22;5.70;;;5.20;;
15271;SDS011;7737;51.578;7.268;2022-08-14T13:55:49;5.80;;;5.30;;
15271;SDS011;7737;51.578;7.268;2022-08-14T13:58:16;5.45;;;5.05;;
15271;SDS011;7737;51.578;7.268;2022-08-14T14:00:45;5.25;;;4.95;;
15271;SDS011;7737;51.578;7.268;2022-08-14T14:03:15;5.65;;;5.15;;
15271;SDS011;7737;51.578;7.268;2022-08-14T14:05:44;5.30;;;4.82;;
15271;SDS011;7737;51.578;7.268;2022-08-14T14:08:16;8.52;;;5.57;;
15271;SDS011;7737;51.578;7.268;2022-08-14T14:10:44;5.28;;;4.88;;
15271;SDS011;7737;51.578;7.268;2022-08-14T14:13:12;5.45;;;4.95;;
15271;SDS011;7737;51.578;7.268;2022-08-14T14:15:42;5.35;;;4.93;;
15271;SDS011;7737;51.578;7.268;2022-08-14T14:18:09;5.18;;;4.88;;
15271;SDS011;7737;51.578;7.268;2022-08-14T14:20:36;5.63;;;5.22;;
15271;SDS011;7737;51.578;7.268;2022-08-14T14:23:05;5.78;;;5.20;;
15271;SDS011;7737;51.578;7.268;2022-08-14T14:25:37;5.20;;;4.65;;
15271;SDS011;7737;51.578;7.268;2022-08-14T14:28:07;5.30;;;4.90;;
15271;SDS011;7737;51.578;7.268;2022-08-14T14:30:35;5.05;;;4.75;;
15271;SDS011;7737;51.578;7.268;2022-08-14T14:33:06;5.05;;;4.60;;
15271;SDS011;7737;51.578;7.268;2022-08-14T14:35:34;5.13;;;4.60;;
15271;SDS011;7737;51.578;7.268;2022-08-14T14:38:02;5.20;;;4.70;;
15271;SDS011;7737;51.578;7.268;2022-08-14T14:40:32;4.80;;;4.50;;
15271;SDS011;7737;51.578;7.268;2022-08-14T14:43:00;5.15;;;4.57;;
15271;SDS011;7737;51.578;7.268;2022-08-14T14:45:28;4.90;;;4.50;;
15271;SDS011;7737;51.578;7.268;2022-08-14T14:47:55;4.47;;;4.10;;
15271;SDS011;7737;51.578;7.268;2022-08-14T14:50:22;5.22;;;4.80;;
15271;SDS011;7737;51.578;7.268;2022-08-14T14:52:48;4.82;;;4.43;;
15271;SDS011;7737;51.578;7.268;2022-08-14T14:55:17;4.75;;;4.35;;
15271;SDS011;7737;51.578;7.268;2022-08-14T14:57:44;4.90;;;4.47;;
15271;SDS011;7737;51.578;7.268;2022-08-14T15:00:13;4.70;;;4.32;;
15271;SDS011;7737;51.578;7.268;2022-08-14T15:02:42;4.75;;;4.35;;
15271;SDS011;7737;51.578;7.268;2022-08-14T15:05:10;4.53;;;4.15;;
15271;SDS011;7737;51.578;7.268;2022-08-14T15:07:40;4.57;;;4.13;;